Boonville, MO

7:30 AM CST on December 14, 2017 (GMT -0600)
Viertel Memorial

Weather History for KVER - September, 2012

Change the Weather History Date:

Thursday, September 20, 2012

  Actual Average Record
Temperature  
Mean Temperature 65 °F -  
Max Temperature 104 °F 78 °F 104 °F (2012)
Min Temperature 54 °F 55 °F 37 °F (1991)
Growing Degree Days 15 (Base 50)    
Moisture  
Dew Point 43 °F    
Average Humidity 50    
Maximum Humidity 86    
Minimum Humidity 17    
Precipitation  
Precipitation 0.00 in - - ()
Sea Level Pressure  
Sea Level Pressure 29.99 in    
Wind  
Wind Speed 3 mph (NW)    
Max Wind Speed 12 mph    
Max Gust Speed 18 mph    
Visibility 10 miles    
Events      
Averages and records for this station are not official NWS values.
T = Trace of Precipitation, MM = Missing Value Source: NWS Daily Summary

Daily Weather History Graph

Daily Weather History Graph

Search for Another Location

Airport or City:

Trip Planner

Search our weather history database for the weather conditions in past years. The results will help you decide how hot, cold, wet, or windy it might be!

Date:

Astronomy

Sep. 20, 2012 Rise Set
Actual Time 6:57 AM CDT 7:10 PM CDT
Civil Twilight 6:30 AM CDT 7:36 PM CDT
Nautical Twilight 5:59 AM CDT 8:07 PM CDT
Astronomical Twilight 5:27 AM CDT 8:39 PM CDT
Moon 12:12 PM CDT (9/20) 10:15 PM CDT (9/20)
Length of Visible Light 13h 06m
Length of Day
12h 13m
Waxing Crescent, 27% of the Moon is Illuminated
Sep 20
Waxing Crescent
Sep 22
First Quarter
Sep 29
Full
Oct 8
Last Quarter
Oct 15
New

Hourly Weather History & Observations

Time (CDT) Temp. Dew Point Humidity Pressure Visibility Wind Dir Wind Speed Gust Speed Precip Events Conditions
12:15 AM 64.4 °F 50.0 °F 59% 29.93 in 10.0 mi SSW 3.5 mph - N/A   Clear
12:35 AM 64.0 °F 50.2 °F 61% 29.96 in 10.0 mi WNW 5.8 mph - N/A   Scattered Clouds
12:55 AM 64.9 °F 50.4 °F 59% 29.96 in 10.0 mi West 5.8 mph - N/A   Scattered Clouds
1:15 AM 65.3 °F 50.9 °F 60% 29.95 in 10.0 mi SW 4.6 mph - N/A   Mostly Cloudy
1:35 AM 65.7 °F 51.1 °F 59% 29.96 in 10.0 mi SW 5.8 mph - N/A   Mostly Cloudy
1:55 AM 65.8 °F 51.3 °F 59% 29.96 in 10.0 mi WSW 5.8 mph - N/A   Scattered Clouds
2:15 AM 66.4 °F 51.3 °F 58% 29.96 in 10.0 mi West 5.8 mph - N/A   Scattered Clouds
2:35 AM 66.6 °F 49.8 °F 55% 29.96 in 10.0 mi WNW 3.5 mph - N/A   Mostly Cloudy
2:55 AM 66.4 °F 48.9 °F 53% 29.96 in 10.0 mi WNW 3.5 mph - N/A   Overcast
3:15 AM 65.8 °F 48.9 °F 54% 29.95 in 10.0 mi West 3.5 mph - N/A   Overcast
3:35 AM 65.1 °F 48.7 °F 55% 29.95 in 10.0 mi Calm Calm - N/A   Scattered Clouds
3:55 AM 63.1 °F 49.1 °F 60% 29.95 in 10.0 mi Calm Calm - N/A   Scattered Clouds
4:15 AM 61.7 °F 49.5 °F 64% 29.96 in 10.0 mi Calm Calm - N/A   Scattered Clouds
4:35 AM 61.5 °F 48.9 °F 63% 29.95 in 10.0 mi Calm Calm - N/A   Clear
4:55 AM 59.7 °F 49.3 °F 68% 29.96 in 10.0 mi Calm Calm - N/A   Clear
5:15 AM 58.3 °F 49.6 °F 73% 29.96 in 10.0 mi Calm Calm - N/A   Clear
5:35 AM 56.5 °F 50.0 °F 79% 29.96 in 10.0 mi Calm Calm - N/A   Clear
5:55 AM 56.8 °F 49.1 °F 75% 29.97 in 10.0 mi Calm Calm - N/A   Clear
6:15 AM 56.1 °F 48.7 °F 76% 29.98 in 10.0 mi Calm Calm - N/A   Clear
6:35 AM 54.3 °F 49.5 °F 84% 29.98 in 10.0 mi Calm Calm - N/A   Clear
6:55 AM 55.2 °F 49.1 °F 80% 29.99 in 10.0 mi Calm Calm - N/A   Clear
7:15 AM 54.1 °F 49.1 °F 83% 30.00 in 10.0 mi Calm Calm - N/A   Clear
7:35 AM 54.1 °F 50.0 °F 86% 30.00 in 10.0 mi Calm Calm - N/A   Clear
8:15 AM 57.4 °F 51.8 °F 82% 30.00 in 10.0 mi Calm Calm - N/A   Clear
8:35 AM 58.6 °F 51.6 °F 77% 30.00 in 10.0 mi Calm Calm - N/A   Clear
8:55 AM 60.8 °F 48.7 °F 64% 30.01 in 10.0 mi NW 3.5 mph - N/A   Clear
9:15 AM 62.6 °F 46.6 °F 56% 30.01 in 10.0 mi Calm Calm - N/A   Clear
9:35 AM 63.3 °F 45.7 °F 53% 30.02 in 10.0 mi NW 4.6 mph - N/A   Clear
9:55 AM 63.7 °F 47.3 °F 55% 30.02 in 10.0 mi NNW 4.6 mph - N/A   Clear
10:15 AM 64.9 °F 46.6 °F 51% 30.02 in 10.0 mi NNW 4.6 mph - N/A   Clear
10:35 AM 66.7 °F 45.5 °F 46% 30.03 in 10.0 mi NNW 4.6 mph - N/A   Clear
10:55 AM 67.6 °F 43.5 °F 42% 30.03 in 10.0 mi NNW 4.6 mph - N/A   Clear
11:15 AM 69.4 °F 41.7 °F 37% 30.03 in 10.0 mi NNW 5.8 mph - N/A   Clear
11:35 AM 70.7 °F 41.0 °F 34% 30.02 in 10.0 mi NW 8.1 mph - N/A   Clear
11:55 AM 71.6 °F 38.8 °F 30% 30.02 in 10.0 mi NW 4.6 mph - N/A   Clear
12:15 PM 72.7 °F 34.5 °F 25% 30.03 in 10.0 mi NW 10.4 mph - N/A   Clear
12:35 PM 73.2 °F 34.7 °F 24% 30.03 in 10.0 mi NW 5.8 mph - N/A   Clear
12:55 PM 74.1 °F 34.9 °F 24% 30.03 in 10.0 mi NNW 10.4 mph - N/A   Clear
1:15 PM 74.5 °F 32.4 °F 21% 30.03 in 10.0 mi NW 6.9 mph - N/A   Clear
1:35 PM 74.7 °F 32.0 °F 21% 30.03 in 10.0 mi NW 9.2 mph - N/A   Clear
1:55 PM 75.0 °F 32.5 °F 21% 30.01 in 10.0 mi NW 8.1 mph - N/A   Clear
2:15 PM 76.1 °F 31.1 °F 19% 30.01 in 10.0 mi NW 9.2 mph - N/A   Clear
2:35 PM 76.3 °F 28.6 °F 17% 30.01 in 10.0 mi NW 8.1 mph 18.4 mph N/A   Clear
2:55 PM 76.3 °F 29.1 °F 18% 30.00 in 10.0 mi NW 5.8 mph - N/A   Clear
3:15 PM 76.1 °F 30.2 °F 19% 30.00 in 10.0 mi NNW 8.1 mph - N/A   Clear
3:35 PM 75.4 °F 31.6 °F 20% 30.00 in 10.0 mi NW 5.8 mph - N/A   Clear
3:55 PM 75.4 °F 32.0 °F 20% 30.00 in 10.0 mi NW 11.5 mph - N/A   Clear
4:15 PM 75.4 °F 31.8 °F 20% 30.00 in 10.0 mi WNW 8.1 mph - N/A   Clear
4:35 PM 74.7 °F 31.8 °F 21% 29.99 in 10.0 mi NW 6.9 mph - N/A   Clear
4:55 PM 73.6 °F 32.0 °F 22% 29.99 in 10.0 mi WNW 5.8 mph - N/A   Clear
5:15 PM 72.7 °F 34.3 °F 25% 29.99 in 10.0 mi Calm Calm - N/A   Clear
5:35 PM 72.0 °F 35.2 °F 26% 29.99 in 10.0 mi Calm Calm - N/A   Clear
5:55 PM 71.8 °F 36.9 °F 28% 29.98 in 10.0 mi Calm Calm - N/A   Clear
6:15 PM 70.7 °F 41.0 °F 34% 29.99 in 10.0 mi Calm Calm - N/A   Clear
6:35 PM 70.0 °F 39.9 °F 33% 29.99 in 10.0 mi Calm Calm - N/A   Clear
6:55 PM 68.7 °F 39.9 °F 35% 29.99 in 10.0 mi Calm Calm - N/A   Clear
7:15 PM 67.1 °F 41.2 °F 39% 29.99 in 10.0 mi Calm Calm - N/A   Clear
7:35 PM 64.9 °F 43.7 °F 46% 29.99 in 10.0 mi Calm Calm - N/A   Clear
7:55 PM 63.5 °F 44.2 °F 49% 29.99 in 10.0 mi Calm Calm - N/A   Clear
8:15 PM 62.8 °F 45.3 °F 53% 29.99 in 10.0 mi Calm Calm - N/A   Clear
8:35 PM 62.4 °F 45.3 °F 54% 30.00 in 10.0 mi Calm Calm - N/A   Clear
8:55 PM 61.0 °F 46.2 °F 58% 30.00 in 10.0 mi Calm Calm - N/A   Clear
9:15 PM 60.3 °F 46.4 °F 60% 30.00 in 10.0 mi Calm Calm - N/A   Clear
9:35 PM 59.4 °F 46.6 °F 63% 30.01 in 10.0 mi Calm Calm - N/A   Clear
9:55 PM 58.5 °F 46.6 °F 65% 30.02 in 10.0 mi Calm Calm - N/A   Clear
10:15 PM 57.2 °F 46.8 °F 68% 30.02 in 10.0 mi Calm Calm - N/A   Clear
10:35 PM 56.8 °F 46.8 °F 69% 30.02 in 10.0 mi Calm Calm - N/A   Clear
10:55 PM 57.2 °F 46.9 °F 69% 30.02 in 10.0 mi Calm Calm - N/A   Clear
11:15 PM 57.9 °F 47.1 °F 67% 30.02 in 10.0 mi Calm Calm - N/A   Clear
11:35 PM 56.7 °F 47.7 °F 72% 30.02 in 10.0 mi Calm Calm - N/A   Clear
11:55 PM 57.0 °F 48.0 °F 72% 30.01 in 10.0 mi Calm Calm - N/A   Clear